Time,TemperatureF,DewpointF,PressureIn,WindDirection,WindDirectionDegrees,WindSpeedMPH,WindSpeedGustMPH,Humidity,HourlyPrecipIn,Conditions,Clouds,dailyrainin,SolarRadiationWatts/m^2,SoftwareType,DateUTC
2013-06-20 00:11:00,51.8,42.0,30.08,NNW,342,0.0,2.0,70,0.00,,,0.00,0,weatherlink.com 1.10,2013-06-20 07:11:00,
2013-06-20 00:26:00,50.5,41.0,30.07,NNW,342,1.0,2.0,70,0.00,,,0.00,0,weatherlink.com 1.10,2013-06-20 07:26:00,
2013-06-20 00:41:00,50.1,41.0,30.07,NNW,342,0.0,0.0,70,0.00,,,0.00,0,weatherlink.com 1.10,2013-06-20 07:41:00,
2013-06-20 00:56:00,50.8,42.0,30.06,NNW,342,0.0,3.0,71,0.00,,,0.00,0,weatherlink.com 1.10,2013-06-20 07:56:00,
2013-06-20 01:11:00,51.1,42.0,30.06,NNW,342,0.0,2.0,72,0.00,,,0.00,0,weatherlink.com 1.10,2013-06-20 08:11:00,
2013-06-20 01:26:00,50.9,42.0,30.05,North,355,2.0,3.0,72,0.00,,,0.00,0,weatherlink.com 1.10,2013-06-20 08:26:00,
2013-06-20 01:41:00,51.8,43.0,30.05,NW,319,0.0,5.0,72,0.00,,,0.00,0,weatherlink.com 1.10,2013-06-20 08:41:00,
2013-06-20 01:56:00,51.8,43.0,30.04,NNW,336,1.0,3.0,72,0.00,,,0.00,0,weatherlink.com 1.10,2013-06-20 08:56:00,
2013-06-20 02:11:00,51.0,42.0,30.04,NNW,342,2.0,3.0,72,0.00,,,0.00,0,weatherlink.com 1.10,2013-06-20 09:11:00,
2013-06-20 02:26:00,51.4,43.0,30.04,NNW,346,1.0,4.0,72,0.00,,,0.00,0,weatherlink.com 1.10,2013-06-20 09:26:00,
2013-06-20 02:41:00,51.1,42.0,30.03,North,9,1.0,4.0,72,0.00,,,0.00,0,weatherlink.com 1.10,2013-06-20 09:41:00,
2013-06-20 02:56:00,51.0,42.0,30.02,North,355,0.0,1.0,72,0.00,,,0.00,0,weatherlink.com 1.10,2013-06-20 09:56:00,
2013-06-20 03:11:00,50.4,42.0,30.02,North,5,0.0,3.0,72,0.00,,,0.00,0,weatherlink.com 1.10,2013-06-20 10:11:00,
2013-06-20 03:26:00,50.0,42.0,30.02,North,5,2.0,3.0,73,0.00,,,0.00,0,weatherlink.com 1.10,2013-06-20 10:26:00,
2013-06-20 03:41:00,49.9,42.0,30.02,North,5,0.0,3.0,73,0.00,,,0.00,0,weatherlink.com 1.10,2013-06-20 10:41:00,
2013-06-20 03:56:00,50.1,42.0,30.02,NNE,24,2.0,5.0,73,0.00,,,0.00,0,weatherlink.com 1.10,2013-06-20 10:56:00,
2013-06-20 04:11:00,50.1,42.0,30.01,NNE,23,0.0,4.0,73,0.00,,,0.00,0,weatherlink.com 1.10,2013-06-20 11:11:00,
2013-06-20 04:26:00,50.2,42.0,30.01,NNE,23,3.0,4.0,73,0.00,,,0.00,0,weatherlink.com 1.10,2013-06-20 11:26:00,
2013-06-20 04:41:00,50.5,42.0,30.01,North,11,2.0,4.0,73,0.00,,,0.00,0,weatherlink.com 1.10,2013-06-20 11:41:00,
2013-06-20 04:56:00,51.0,42.0,30.00,NNW,341,2.0,5.0,72,0.00,,,0.00,0,weatherlink.com 1.10,2013-06-20 11:56:00,
2013-06-20 05:11:00,50.0,42.0,30.01,West,265,0.0,4.0,73,0.00,,,0.00,0,weatherlink.com 1.10,2013-06-20 12:11:00,
2013-06-20 05:26:00,49.8,41.0,30.01,NNW,340,2.0,4.0,73,0.00,,,0.00,0,weatherlink.com 1.10,2013-06-20 12:26:00,
2013-06-20 05:41:00,50.5,42.0,30.01,NNW,340,2.0,3.0,73,0.00,,,0.00,0,weatherlink.com 1.10,2013-06-20 12:41:00,
2013-06-20 05:56:00,50.5,42.0,30.01,NNW,341,0.0,2.0,72,0.00,,,0.00,7,weatherlink.com 1.10,2013-06-20 12:56:00,
2013-06-20 06:11:00,50.4,42.0,30.02,NNW,340,0.0,1.0,72,0.00,,,0.00,16,weatherlink.com 1.10,2013-06-20 13:11:00,
2013-06-20 06:26:00,49.4,41.0,30.01,NNE,28,4.0,5.0,72,0.00,,,0.00,21,weatherlink.com 1.10,2013-06-20 13:26:00,
2013-06-20 06:41:00,49.0,41.0,30.02,NNE,28,0.0,2.0,73,0.00,,,0.00,26,weatherlink.com 1.10,2013-06-20 13:41:00,
2013-06-20 06:57:00,49.6,41.0,30.02,NNE,28,0.0,3.0,73,0.00,,,0.00,142,weatherlink.com 1.10,2013-06-20 13:57:00,
2013-06-20 07:12:00,51.4,43.0,30.02,NNE,21,0.0,2.0,73,0.00,,,0.00,199,weatherlink.com 1.10,2013-06-20 14:12:00,
2013-06-20 07:27:00,51.9,43.0,30.02,NNE,13,0.0,1.0,72,0.00,,,0.00,258,weatherlink.com 1.10,2013-06-20 14:27:00,
2013-06-20 07:42:00,54.5,46.0,30.02,NW,318,1.0,3.0,72,0.00,,,0.00,309,weatherlink.com 1.10,2013-06-20 14:42:00,
2013-06-20 07:57:00,53.2,44.0,30.02,WSW,245,2.0,3.0,71,0.00,,,0.00,360,weatherlink.com 1.10,2013-06-20 14:57:00,
2013-06-20 08:12:00,53.5,45.0,30.02,WSW,245,0.0,4.0,72,0.00,,,0.00,410,weatherlink.com 1.10,2013-06-20 15:12:00,
2013-06-20 08:27:00,54.2,45.0,30.02,West,271,5.0,7.0,71,0.00,,,0.00,459,weatherlink.com 1.10,2013-06-20 15:27:00,
2013-06-20 08:42:00,54.3,45.0,30.02,West,267,4.0,9.0,71,0.00,,,0.00,504,weatherlink.com 1.10,2013-06-20 15:42:00,
2013-06-20 08:57:00,55.0,46.0,30.02,West,262,2.0,8.0,72,0.00,,,0.00,552,weatherlink.com 1.10,2013-06-20 15:57:00,
2013-06-20 09:12:00,55.8,47.0,30.02,WNW,288,7.0,10.0,71,0.00,,,0.00,599,weatherlink.com 1.10,2013-06-20 16:12:00,
2013-06-20 09:27:00,56.0,46.0,30.01,WNW,298,3.0,12.0,70,0.00,,,0.00,643,weatherlink.com 1.10,2013-06-20 16:27:00,
2013-06-20 09:42:00,56.6,46.0,30.02,North,355,2.0,11.0,69,0.00,,,0.00,687,weatherlink.com 1.10,2013-06-20 16:42:00,
2013-06-20 09:57:00,56.9,47.0,30.02,West,274,7.0,12.0,70,0.00,,,0.00,724,weatherlink.com 1.10,2013-06-20 16:57:00,
2013-06-20 10:12:00,57.1,47.0,30.01,West,275,6.0,10.0,70,0.00,,,0.00,763,weatherlink.com 1.10,2013-06-20 17:12:00,
2013-06-20 10:28:00,56.9,47.0,30.01,SW,221,4.0,13.0,70,0.00,,,0.00,796,weatherlink.com 1.10,2013-06-20 17:28:00,
2013-06-20 10:43:00,57.4,48.0,30.01,WNW,283,6.0,13.0,70,0.00,,,0.00,833,weatherlink.com 1.10,2013-06-20 17:43:00,
2013-06-20 10:58:00,57.7,48.0,30.00,WSW,250,2.0,12.0,69,0.00,,,0.00,863,weatherlink.com 1.10,2013-06-20 17:58:00,
2013-06-20 11:13:00,58.7,48.0,30.00,WSW,247,2.0,12.0,68,0.00,,,0.00,889,weatherlink.com 1.10,2013-06-20 18:13:00,
2013-06-20 11:28:00,58.0,47.0,30.00,West,263,5.0,13.0,68,0.00,,,0.00,918,weatherlink.com 1.10,2013-06-20 18:28:00,
2013-06-20 11:43:00,57.7,48.0,30.00,West,268,12.0,15.0,69,0.00,,,0.00,937,weatherlink.com 1.10,2013-06-20 18:43:00,
2013-06-20 11:58:00,57.8,48.0,30.00,WNW,284,5.0,16.0,69,0.00,,,0.00,956,weatherlink.com 1.10,2013-06-20 18:58:00,
2013-06-20 12:13:00,58.5,48.0,30.00,West,266,12.0,14.0,68,0.00,,,0.00,970,weatherlink.com 1.10,2013-06-20 19:13:00,
2013-06-20 12:28:00,58.6,48.0,30.00,West,273,5.0,19.0,68,0.00,,,0.00,981,weatherlink.com 1.10,2013-06-20 19:28:00,
2013-06-20 12:58:00,58.6,48.0,30.00,WSW,242,9.0,19.0,67,0.00,,,0.00,995,weatherlink.com 1.10,2013-06-20 19:58:00,
2013-06-20 13:13:00,58.3,48.0,30.00,West,268,7.0,18.0,68,0.00,,,0.00,997,weatherlink.com 1.10,2013-06-20 20:13:00,
2013-06-20 13:28:00,58.8,48.0,30.00,West,260,12.0,17.0,67,0.00,,,0.00,993,weatherlink.com 1.10,2013-06-20 20:28:00,
2013-06-20 13:43:00,59.0,48.0,30.00,WSW,256,14.0,21.0,66,0.00,,,0.00,993,weatherlink.com 1.10,2013-06-20 20:43:00,
2013-06-20 13:58:00,58.6,48.0,30.00,West,269,7.0,21.0,67,0.00,,,0.00,983,weatherlink.com 1.10,2013-06-20 20:58:00,
2013-06-20 14:13:00,59.1,48.0,29.99,WSW,257,9.0,21.0,66,0.00,,,0.00,970,weatherlink.com 1.10,2013-06-20 21:13:00,
2013-06-20 14:28:00,58.4,47.0,30.00,West,275,17.0,19.0,66,0.00,,,0.00,956,weatherlink.com 1.10,2013-06-20 21:28:00,
2013-06-20 14:43:00,58.2,47.0,30.00,WNW,286,10.0,19.0,67,0.00,,,0.00,939,weatherlink.com 1.10,2013-06-20 21:43:00,
2013-06-20 14:58:00,58.5,47.0,30.00,West,273,8.0,20.0,67,0.00,,,0.00,914,weatherlink.com 1.10,2013-06-20 21:58:00,
2013-06-20 15:13:00,58.8,48.0,29.99,West,266,11.0,18.0,67,0.00,,,0.00,888,weatherlink.com 1.10,2013-06-20 22:13:00,
2013-06-20 15:28:00,59.1,48.0,29.99,NW,309,10.0,18.0,67,0.00,,,0.00,860,weatherlink.com 1.10,2013-06-20 22:28:00,
2013-06-20 15:43:00,58.9,48.0,29.99,WNW,298,4.0,18.0,67,0.00,,,0.00,828,weatherlink.com 1.10,2013-06-20 22:43:00,
2013-06-20 15:58:00,59.3,48.0,29.99,NNW,336,6.0,20.0,66,0.00,,,0.00,795,weatherlink.com 1.10,2013-06-20 22:58:00,
2013-06-20 16:13:00,59.2,48.0,30.00,West,269,12.0,17.0,66,0.00,,,0.00,759,weatherlink.com 1.10,2013-06-20 23:13:00,
2013-06-20 16:28:00,58.8,48.0,30.00,WNW,283,11.0,19.0,67,0.00,,,0.00,721,weatherlink.com 1.10,2013-06-20 23:28:00,
2013-06-20 16:43:00,58.6,48.0,30.00,WNW,286,9.0,20.0,67,0.00,,,0.00,682,weatherlink.com 1.10,2013-06-20 23:43:00,
2013-06-20 16:58:00,58.7,47.0,30.00,West,271,8.0,20.0,66,0.00,,,0.00,643,weatherlink.com 1.10,2013-06-20 23:58:00,
2013-06-20 17:13:00,58.9,47.0,30.00,WNW,286,12.0,17.0,66,0.00,,,0.00,596,weatherlink.com 1.10,2013-06-21 00:13:00,
2013-06-20 17:28:00,58.9,47.0,30.00,West,264,13.0,19.0,66,0.00,,,0.00,555,weatherlink.com 1.10,2013-06-21 00:28:00,
2013-06-20 17:43:00,59.6,48.0,29.99,West,269,12.0,20.0,65,0.00,,,0.00,508,weatherlink.com 1.10,2013-06-21 00:43:00,
2013-06-20 17:58:00,59.5,48.0,29.98,West,281,9.0,18.0,65,0.00,,,0.00,459,weatherlink.com 1.10,2013-06-21 00:58:00,
2013-06-20 18:13:00,59.6,48.0,29.98,West,274,9.0,17.0,65,0.00,,,0.00,411,weatherlink.com 1.10,2013-06-21 01:13:00,
2013-06-20 18:28:00,58.7,47.0,29.99,NNW,328,3.0,21.0,65,0.00,,,0.00,362,weatherlink.com 1.10,2013-06-21 01:28:00,
2013-06-20 18:43:00,58.1,47.0,29.99,WNW,301,9.0,18.0,66,0.00,,,0.00,313,weatherlink.com 1.10,2013-06-21 01:43:00,
2013-06-20 18:58:00,58.0,47.0,29.99,West,267,7.0,19.0,67,0.00,,,0.00,267,weatherlink.com 1.10,2013-06-21 01:58:00,
2013-06-20 19:13:00,57.8,47.0,29.98,WSW,243,15.0,18.0,67,0.00,,,0.00,218,weatherlink.com 1.10,2013-06-21 02:13:00,
2013-06-20 19:28:00,57.4,46.0,29.98,West,278,9.0,19.0,67,0.00,,,0.00,167,weatherlink.com 1.10,2013-06-21 02:28:00,
2013-06-20 19:43:00,56.5,46.0,29.99,NNW,333,7.0,17.0,68,0.00,,,0.00,111,weatherlink.com 1.10,2013-06-21 02:43:00,
2013-06-20 19:58:00,56.8,46.0,29.99,WNW,286,10.0,15.0,68,0.00,,,0.00,65,weatherlink.com 1.10,2013-06-21 02:58:00,
2013-06-20 20:13:00,56.7,46.0,30.00,WNW,292,5.0,10.0,68,0.00,,,0.00,30,weatherlink.com 1.10,2013-06-21 03:13:00,
2013-06-20 20:28:00,56.5,46.0,30.00,West,265,5.0,6.0,68,0.00,,,0.00,11,weatherlink.com 1.10,2013-06-21 03:28:00,
2013-06-20 20:43:00,56.2,46.0,29.99,WNW,295,3.0,5.0,68,0.00,,,0.00,5,weatherlink.com 1.10,2013-06-21 03:43:00,
2013-06-20 20:59:00,55.7,46.0,29.99,West,274,1.0,4.0,69,0.00,,,0.00,0,weatherlink.com 1.10,2013-06-21 03:59:00,
2013-06-20 21:14:00,55.1,45.0,29.99,West,281,0.0,3.0,69,0.00,,,0.00,0,weatherlink.com 1.10,2013-06-21 04:14:00,
2013-06-20 21:29:00,55.0,45.0,29.99,West,279,2.0,5.0,69,0.00,,,0.00,0,weatherlink.com 1.10,2013-06-21 04:29:00,
2013-06-20 21:44:00,54.8,45.0,30.00,West,270,2.0,5.0,69,0.00,,,0.00,0,weatherlink.com 1.10,2013-06-21 04:44:00,
2013-06-20 21:59:00,54.5,45.0,30.00,WNW,286,1.0,7.0,70,0.00,,,0.00,0,weatherlink.com 1.10,2013-06-21 04:59:00,
2013-06-20 22:14:00,54.1,45.0,30.00,WNW,299,0.0,5.0,70,0.00,,,0.00,0,weatherlink.com 1.10,2013-06-21 05:14:00,
2013-06-20 22:29:00,53.6,44.0,30.01,WNW,298,1.0,1.0,70,0.00,,,0.00,0,weatherlink.com 1.10,2013-06-21 05:29:00,
2013-06-20 22:44:00,53.0,44.0,30.00,WNW,302,0.0,4.0,71,0.00,,,0.00,0,weatherlink.com 1.10,2013-06-21 05:44:00,
2013-06-20 22:59:00,52.0,43.0,30.00,NNW,334,0.0,4.0,71,0.00,,,0.00,0,weatherlink.com 1.10,2013-06-21 05:59:00,
2013-06-20 23:14:00,50.5,42.0,30.00,NNW,334,1.0,4.0,72,0.00,,,0.00,0,weatherlink.com 1.10,2013-06-21 06:14:00,
2013-06-20 23:29:00,50.0,41.0,30.00,NNW,334,0.0,3.0,72,0.00,,,0.00,0,weatherlink.com 1.10,2013-06-21 06:29:00,
2013-06-20 23:44:00,49.5,41.0,30.00,North,360,3.0,3.0,72,0.00,,,0.00,0,weatherlink.com 1.10,2013-06-21 06:44:00,
2013-06-20 23:59:00,49.5,41.0,29.99,North,360,0.0,1.0,72,0.00,,,0.00,0,weatherlink.com 1.10,2013-06-21 06:59:00,